Time;durP1;ratioP1;P1;durP2;ratioP2;P2;SDS_P1;SDS_P2;PMS_P1;PMS_P2;Temp;Humidity;BMP_temperature;BMP_pressure;BME280_temperature;BME280_humidity;BME280_pressure;Samples;Min_cycle;Max_cycle;Signal;HPM_P1;HPM_P2
2022/11/23 00:01:15;;;;;;;8.20;5.70;;;28.80;93.20;;;;;;5086725;28;20254;-57
2022/11/23 00:03:42;;;;;;;10.27;5.75;;;28.80;93.30;;;;;;5086427;28;20020;-50
2022/11/23 00:06:09;;;;;;;8.15;5.95;;;28.80;93.30;;;;;;5086550;28;20067;-51
2022/11/23 00:08:36;;;;;;;10.40;6.47;;;28.80;93.40;;;;;;5086092;28;20066;-50
2022/11/23 00:11:02;;;;;;;7.93;5.90;;;28.80;93.50;;;;;;5086268;28;20043;-52
2022/11/23 00:13:29;;;;;;;11.32;5.85;;;28.80;93.40;;;;;;5086051;28;20031;-50
2022/11/23 00:15:56;;;;;;;10.73;5.88;;;28.80;93.40;;;;;;5086360;28;20031;-56
2022/11/23 00:18:23;;;;;;;6.82;5.50;;;28.70;93.60;;;;;;5085892;28;20087;-52
2022/11/23 00:20:49;;;;;;;7.18;4.90;;;28.80;93.70;;;;;;5085916;28;20024;-50
2022/11/23 00:23:16;;;;;;;8.30;5.68;;;28.70;93.60;;;;;;5086106;28;20036;-50
2022/11/23 00:25:45;;;;;;;9.07;5.20;;;28.70;93.60;;;;;;5085959;28;20029;-54
2022/11/23 00:28:12;;;;;;;11.95;5.65;;;28.70;93.70;;;;;;5085799;28;20044;-50
2022/11/23 00:30:39;;;;;;;7.40;5.28;;;28.70;93.70;;;;;;5085872;28;20070;-51
2022/11/23 00:33:05;;;;;;;9.27;5.78;;;28.70;93.80;;;;;;5085728;28;20052;-55
2022/11/23 00:35:32;;;;;;;7.78;5.80;;;28.70;93.80;;;;;;5085752;28;20044;-52
2022/11/23 00:37:59;;;;;;;9.85;5.88;;;28.70;93.80;;;;;;5085043;28;20222;-55
2022/11/23 00:40:25;;;;;;;7.35;5.40;;;28.70;93.80;;;;;;5084953;28;20235;-56
2022/11/23 00:42:52;;;;;;;9.27;5.25;;;28.60;93.80;;;;;;5085678;28;20028;-52
2022/11/23 00:45:18;;;;;;;7.65;4.45;;;28.70;93.90;;;;;;5085698;28;20020;-52
2022/11/23 00:47:45;;;;;;;7.68;4.68;;;28.60;93.80;;;;;;5085341;28;20025;-52
2022/11/23 00:50:12;;;;;;;7.50;4.55;;;28.60;93.80;;;;;;5084115;28;20235;-54
2022/11/23 00:52:38;;;;;;;8.88;4.78;;;28.60;93.80;;;;;;5084329;28;20032;-54
2022/11/23 00:55:05;;;;;;;5.82;4.80;;;28.60;93.80;;;;;;5085522;28;20044;-54
2022/11/23 00:57:33;;;;;;;6.75;4.30;;;28.60;93.80;;;;;;5084789;28;20033;-55
2022/11/23 01:00:00;;;;;;;7.72;4.38;;;28.60;93.80;;;;;;5085500;28;20063;-54
2022/11/23 01:02:26;;;;;;;8.52;4.28;;;28.60;93.80;;;;;;5085099;28;20313;-54
2022/11/23 01:04:53;;;;;;;6.43;4.40;;;28.60;93.80;;;;;;5083946;28;20039;-52
2022/11/23 01:07:19;;;;;;;5.30;3.80;;;28.50;93.80;;;;;;5081803;28;20047;-55
2022/11/23 01:09:50;;;;;;;5.70;4.30;;;28.50;93.80;;;;;;5084328;28;20224;-51
2022/11/23 01:12:19;;;;;;;78.93;10.57;;;28.40;93.90;;;;;;5083841;28;20043;-47
2022/11/23 01:14:46;;;;;;;16.88;4.88;;;28.30;93.80;;;;;;5084998;28;20032;-50
2022/11/23 01:17:13;;;;;;;19.98;5.32;;;28.30;93.80;;;;;;5084987;28;20047;-52
2022/11/23 01:19:42;;;;;;;13.18;4.30;;;28.20;93.70;;;;;;5084868;28;20304;-55
2022/11/23 01:22:09;;;;;;;8.10;3.95;;;28.20;93.80;;;;;;5084845;28;20032;-54
2022/11/23 01:24:35;;;;;;;6.03;3.83;;;28.20;93.70;;;;;;5084443;28;20123;-53
2022/11/23 01:27:02;;;;;;;4.93;3.50;;;28.10;93.60;;;;;;5084430;28;20028;-52
2022/11/23 01:29:29;;;;;;;9.20;3.70;;;28.20;93.60;;;;;;5084006;28;20019;-52
2022/11/23 01:31:55;;;;;;;8.10;3.90;;;28.10;93.60;;;;;;5079597;28;20016;-54
2022/11/23 01:34:22;;;;;;;6.70;4.05;;;28.10;93.60;;;;;;5079118;28;20025;-51
2022/11/23 01:36:48;;;;;;;7.68;3.50;;;28.00;93.50;;;;;;5084557;28;20032;-53
2022/11/23 01:39:15;;;;;;;25.85;4.82;;;28.00;93.70;;;;;;5084741;28;20036;-50
2022/11/23 01:41:44;;;;;;;11.70;4.57;;;28.00;93.90;;;;;;5083276;28;20039;-50
2022/11/23 01:44:31;;;;;;;83.97;9.23;;;28.00;94.00;;;;;;5083980;28;20032;-51
2022/11/23 01:47:06;;;;;;;38.65;6.20;;;28.00;94.10;;;;;;5082956;28;20035;-48
2022/11/23 01:49:47;;;;;;;22.30;5.30;;;28.00;94.20;;;;;;5071541;28;20024;-55
2022/11/23 01:52:17;;;;;;;12.80;4.68;;;28.00;94.20;;;;;;5071157;28;20025;-52
2022/11/23 01:54:51;;;;;;;8.98;4.10;;;27.90;94.20;;;;;;5064626;28;20033;-49
2022/11/23 01:57:41;;;;;;;9.00;4.05;;;28.00;94.20;;;;;;5082785;28;20016;-55
2022/11/23 02:00:08;;;;;;;11.68;4.32;;;28.00;94.30;;;;;;5077921;28;20044;-51
2022/11/23 02:02:42;;;;;;;7.50;4.45;;;28.00;94.40;;;;;;5066227;28;20025;-58
2022/11/23 02:05:10;;;;;;;8.77;4.40;;;28.00;94.40;;;;;;5077307;28;20043;-53
2022/11/23 02:07:37;;;;;;;8.18;4.15;;;28.00;94.60;;;;;;5063956;28;20017;-60
2022/11/23 02:10:07;;;;;;;7.28;3.95;;;27.90;94.40;;;;;;5073198;28;20053;-52
2022/11/23 02:12:35;;;;;;;6.22;4.13;;;28.00;94.50;;;;;;5067657;28;20267;-50
2022/11/23 02:15:05;;;;;;;7.80;3.95;;;27.90;94.60;;;;;;5069836;28;20025;-55
2022/11/23 02:17:35;;;;;;;8.00;3.90;;;27.90;94.60;;;;;;5083790;28;20012;-59
2022/11/23 02:20:16;;;;;;;6.10;3.55;;;28.00;94.50;;;;;;5073534;28;20229;-57
2022/11/23 02:22:58;;;;;;;5.10;3.80;;;28.00;94.40;;;;;;5071636;28;20308;-53
2022/11/23 02:25:46;;;;;;;6.85;4.70;;;28.10;94.40;;;;;;5063853;28;20108;-54
2022/11/23 02:28:17;;;;;;;9.07;4.40;;;28.10;94.20;;;;;;5062702;28;20220;-54
2022/11/23 02:30:46;;;;;;;8.05;4.13;;;28.10;94.20;;;;;;5064342;28;20067;-57
2022/11/23 02:33:13;;;;;;;6.55;4.25;;;28.10;94.20;;;;;;5071760;28;20048;-56
2022/11/23 02:35:54;;;;;;;9.35;4.32;;;28.20;94.20;;;;;;5074949;28;20037;-53
2022/11/23 02:38:21;;;;;;;6.82;3.80;;;28.20;94.20;;;;;;5076229;28;20033;-55
2022/11/23 02:40:49;;;;;;;10.68;3.90;;;28.20;94.10;;;;;;5064108;28;20037;-56
2022/11/23 02:43:16;;;;;;;7.45;4.00;;;28.20;94.10;;;;;;5063623;28;20029;-57
2022/11/23 02:45:58;;;;;;;6.30;3.80;;;28.20;94.20;;;;;;5074403;28;20066;-56
2022/11/23 02:48:25;;;;;;;5.45;3.75;;;28.20;94.10;;;;;;5074628;28;20193;-55
2022/11/23 02:50:52;;;;;;;9.65;3.58;;;28.20;94.10;;;;;;5071552;28;20033;-57
2022/11/23 02:53:19;;;;;;;6.38;3.60;;;28.20;94.00;;;;;;5071721;28;20201;-55
2022/11/23 02:55:46;;;;;;;7.43;3.85;;;28.20;94.00;;;;;;5065218;28;20381;-56
2022/11/23 02:58:12;;;;;;;4.30;3.85;;;28.20;94.00;;;;;;5062273;28;20084;-58
2022/11/23 03:00:39;;;;;;;8.45;3.92;;;28.20;94.10;;;;;;5070932;28;20054;-51
2022/11/23 03:03:06;;;;;;;10.07;3.90;;;28.10;94.10;;;;;;5079417;28;20024;-52
2022/11/23 03:05:33;;;;;;;6.78;3.75;;;28.10;94.00;;;;;;5063846;28;20063;-59
2022/11/23 03:07:59;;;;;;;6.70;3.92;;;28.10;94.10;;;;;;5063773;28;20056;-53
2022/11/23 03:10:27;;;;;;;7.03;3.50;;;28.10;94.10;;;;;;5064290;28;20032;-53
2022/11/23 03:12:55;;;;;;;8.43;3.80;;;28.10;94.20;;;;;;5063929;28;20288;-56
2022/11/23 03:15:22;;;;;;;7.78;3.80;;;28.00;94.20;;;;;;5063860;28;20063;-56
2022/11/23 03:17:49;;;;;;;7.07;4.05;;;28.00;94.10;;;;;;5074424;28;20025;-52
2022/11/23 03:20:16;;;;;;;4.80;3.17;;;28.10;94.10;;;;;;5064025;28;20257;-59
2022/11/23 03:22:43;;;;;;;7.03;3.58;;;28.00;94.10;;;;;;5062537;28;20261;-53
2022/11/23 03:25:09;;;;;;;6.18;3.50;;;28.00;94.00;;;;;;5062501;28;20308;-61
2022/11/23 03:27:38;;;;;;;6.07;3.72;;;28.00;93.90;;;;;;5063627;28;20021;-54
2022/11/23 03:30:09;;;;;;;5.20;3.40;;;27.90;93.90;;;;;;5063456;28;20070;-51
2022/11/23 03:32:36;;;;;;;5.28;3.30;;;28.00;94.00;;;;;;5063849;28;20273;-53
2022/11/23 03:35:04;;;;;;;6.43;3.33;;;28.00;93.70;;;;;;5067147;28;20080;-55
2022/11/23 03:37:31;;;;;;;7.78;3.63;;;27.90;93.80;;;;;;5066714;28;20045;-52
2022/11/23 03:39:58;;;;;;;6.40;3.63;;;27.90;93.60;;;;;;5066956;28;20028;-57
2022/11/23 03:42:24;;;;;;;6.20;3.70;;;27.90;93.70;;;;;;5083007;28;20032;-52
2022/11/23 03:44:51;;;;;;;8.07;6.20;;;27.90;93.70;;;;;;5075027;28;20312;-53
2022/11/23 03:47:17;;;;;;;8.88;6.43;;;27.90;93.50;;;;;;5073903;28;20075;-53
2022/11/23 03:49:44;;;;;;;6.90;6.10;;;27.80;93.40;;;;;;5066512;28;20055;-53
2022/11/23 03:52:11;;;;;;;10.65;9.55;;;27.80;93.60;;;;;;5068519;28;20008;-54
2022/11/23 03:54:37;;;;;;;13.52;12.23;;;27.80;93.50;;;;;;5080416;28;20019;-53
2022/11/23 03:57:04;;;;;;;13.50;11.00;;;27.80;93.50;;;;;;5084308;28;20036;-56
2022/11/23 03:59:30;;;;;;;11.90;10.50;;;27.80;93.50;;;;;;5086165;28;20016;-54
2022/11/23 04:01:57;;;;;;;9.25;6.47;;;27.80;93.50;;;;;;5079980;28;20331;-61
2022/11/23 04:04:23;;;;;;;7.22;4.88;;;27.80;93.30;;;;;;5067784;28;20016;-59
2022/11/23 04:06:50;;;;;;;8.45;5.88;;;27.80;93.30;;;;;;5086091;28;20024;-56
2022/11/23 04:09:16;;;;;;;7.20;5.40;;;27.80;93.50;;;;;;5086483;28;20035;-60
2022/11/23 04:11:43;;;;;;;7.32;4.47;;;27.80;93.40;;;;;;5086760;28;20028;-59
2022/11/23 04:14:09;;;;;;;7.47;4.20;;;27.80;93.30;;;;;;5086013;28;20060;-59
2022/11/23 04:16:36;;;;;;;8.38;4.03;;;27.80;93.30;;;;;;5085586;28;20021;-57
2022/11/23 04:19:03;;;;;;;5.78;3.65;;;27.70;93.20;;;;;;5083199;28;20028;-54
2022/11/23 04:21:29;;;;;;;7.75;3.90;;;27.70;93.40;;;;;;5086275;28;20028;-59
2022/11/23 04:23:56;;;;;;;6.80;3.60;;;27.70;93.30;;;;;;5086068;28;20031;-55
2022/11/23 04:26:22;;;;;;;5.03;3.40;;;27.70;93.20;;;;;;5086056;28;20094;-57
2022/11/23 04:28:49;;;;;;;5.00;3.30;;;27.60;93.20;;;;;;5085854;28;20358;-59
2022/11/23 04:31:15;;;;;;;6.20;3.53;;;27.70;93.20;;;;;;5085359;28;20025;-55
2022/11/23 04:33:42;;;;;;;4.13;3.25;;;27.70;93.20;;;;;;5084793;28;20033;-54
2022/11/23 04:36:08;;;;;;;6.05;3.70;;;27.60;93.20;;;;;;5084529;28;20044;-62
2022/11/23 04:38:35;;;;;;;5.57;3.33;;;27.60;93.30;;;;;;5083877;28;20031;-54
2022/11/23 04:41:02;;;;;;;5.43;3.00;;;27.60;93.30;;;;;;5083883;28;20355;-60
2022/11/23 04:43:28;;;;;;;4.28;3.40;;;27.60;93.20;;;;;;5083850;28;20358;-57
2022/11/23 04:45:55;;;;;;;7.40;3.10;;;27.60;93.20;;;;;;5083978;28;20039;-59
2022/11/23 04:48:21;;;;;;;6.90;3.10;;;27.60;93.10;;;;;;5084108;28;20333;-55
2022/11/23 04:50:48;;;;;;;5.82;2.92;;;27.60;93.00;;;;;;5084854;28;20036;-53
2022/11/23 04:53:15;;;;;;;5.90;3.30;;;27.60;93.10;;;;;;5085301;28;20017;-56
2022/11/23 04:55:42;;;;;;;7.57;3.00;;;27.60;93.20;;;;;;5085627;28;20036;-54
2022/11/23 04:58:08;;;;;;;6.35;3.20;;;27.60;93.20;;;;;;5085278;28;20028;-56
2022/11/23 05:00:35;;;;;;;5.93;3.28;;;27.60;93.20;;;;;;5085416;28;20025;-54
2022/11/23 05:03:01;;;;;;;6.07;2.97;;;27.60;93.20;;;;;;5085183;28;20091;-54
2022/11/23 05:05:28;;;;;;;5.28;3.10;;;27.60;93.20;;;;;;5085380;28;20380;-58
2022/11/23 05:07:56;;;;;;;7.65;3.30;;;27.60;93.20;;;;;;5085030;28;20099;-53
2022/11/23 05:10:22;;;;;;;8.00;2.92;;;27.60;93.30;;;;;;5085275;28;20037;-59
2022/11/23 05:12:49;;;;;;;5.43;3.20;;;27.60;93.20;;;;;;5085006;28;20115;-57
2022/11/23 05:15:15;;;;;;;5.75;3.22;;;27.60;93.20;;;;;;5085031;28;20036;-54
2022/11/23 05:17:42;;;;;;;5.53;3.10;;;27.60;93.30;;;;;;5084903;28;20024;-54
2022/11/23 05:20:10;;;;;;;6.97;3.50;;;27.60;93.20;;;;;;5084757;28;20046;-54
2022/11/23 05:22:37;;;;;;;4.95;3.22;;;27.60;93.20;;;;;;5084731;28;20055;-53
2022/11/23 05:25:03;;;;;;;6.05;3.35;;;27.60;93.20;;;;;;5084860;28;20326;-57
2022/11/23 05:27:30;;;;;;;5.78;3.08;;;27.50;93.30;;;;;;5084640;28;20068;-56
2022/11/23 05:29:57;;;;;;;4.18;2.83;;;27.60;93.20;;;;;;5084656;28;20074;-56
2022/11/23 05:32:23;;;;;;;6.57;3.00;;;27.60;93.20;;;;;;5084774;28;20044;-56
2022/11/23 05:34:50;;;;;;;6.03;3.28;;;27.60;93.10;;;;;;5084622;28;20033;-56
2022/11/23 05:37:16;;;;;;;3.25;2.80;;;27.50;93.00;;;;;;5084371;28;20050;-64
2022/11/23 05:39:43;;;;;;;5.18;3.05;;;27.50;93.30;;;;;;5084659;28;20056;-53
2022/11/23 05:42:09;;;;;;;5.85;3.00;;;27.50;93.30;;;;;;5084531;28;20057;-53
2022/11/23 05:44:36;;;;;;;5.97;2.90;;;27.50;93.30;;;;;;5084531;28;20057;-54
2022/11/23 05:47:03;;;;;;;4.80;2.67;;;27.50;93.20;;;;;;5084225;28;20332;-54
2022/11/23 05:49:30;;;;;;;5.40;2.70;;;27.50;93.20;;;;;;5084326;28;20012;-61
2022/11/23 05:51:56;;;;;;;6.38;2.88;;;27.50;93.10;;;;;;5084331;28;20096;-57
2022/11/23 05:54:23;;;;;;;6.97;3.03;;;27.50;93.20;;;;;;5084106;28;20016;-57
2022/11/23 05:56:49;;;;;;;5.47;2.83;;;27.40;93.30;;;;;;5083842;28;20029;-61
2022/11/23 05:59:16;;;;;;;7.32;3.22;;;27.40;93.20;;;;;;5084316;28;20036;-59
2022/11/23 06:01:42;;;;;;;5.57;2.90;;;27.50;93.30;;;;;;5084569;28;20181;-54
2022/11/23 06:04:09;;;;;;;4.65;2.97;;;27.50;93.40;;;;;;5084141;28;20037;-57
2022/11/23 06:06:36;;;;;;;5.50;2.95;;;27.50;93.40;;;;;;5083955;28;20025;-59
2022/11/23 06:09:02;;;;;;;4.78;2.80;;;27.40;93.50;;;;;;5070352;28;20012;-53
2022/11/23 06:11:30;;;;;;;6.60;3.00;;;27.40;93.60;;;;;;5064463;28;20047;-54
2022/11/23 06:13:56;;;;;;;5.97;2.97;;;27.40;93.50;;;;;;5063973;28;20084;-57
2022/11/23 06:16:23;;;;;;;6.03;2.80;;;27.40;93.60;;;;;;5064180;28;20044;-56
2022/11/23 06:18:50;;;;;;;6.68;2.97;;;27.30;93.70;;;;;;5063865;28;20088;-59
2022/11/23 06:21:16;;;;;;;5.47;2.70;;;27.30;93.60;;;;;;5064379;28;20058;-55
2022/11/23 06:23:43;;;;;;;9.82;2.90;;;27.30;93.80;;;;;;5063777;28;20267;-55
2022/11/23 06:26:09;;;;;;;4.80;2.80;;;27.40;93.70;;;;;;5064123;28;20025;-54
2022/11/23 06:28:36;;;;;;;6.22;2.60;;;27.30;93.70;;;;;;5063768;28;20028;-53
2022/11/23 06:31:05;;;;;;;4.72;3.10;;;27.30;93.90;;;;;;5063987;28;20308;-54
2022/11/23 06:33:32;;;;;;;4.03;3.03;;;27.30;93.90;;;;;;5063758;28;20025;-54
2022/11/23 06:36:01;;;;;;;6.10;3.50;;;27.30;94.00;;;;;;5063849;28;20060;-59
2022/11/23 06:38:28;;;;;;;4.68;3.20;;;27.30;94.10;;;;;;5063585;28;20028;-58
2022/11/23 06:41:01;;;;;;;5.63;3.10;;;27.30;94.10;;;;;;5063659;28;20041;-57
2022/11/23 06:43:28;;;;;;;7.05;3.13;;;27.30;94.20;;;;;;5063608;28;20088;-54
2022/11/23 06:45:55;;;;;;;4.97;3.10;;;27.20;94.20;;;;;;5063703;28;20033;-57
2022/11/23 06:48:23;;;;;;;6.00;3.17;;;27.20;94.40;;;;;;5063617;28;20081;-55
2022/11/23 06:50:49;;;;;;;5.47;3.00;;;27.20;94.30;;;;;;5063925;28;20024;-57
2022/11/23 06:53:16;;;;;;;5.78;3.35;;;27.30;94.30;;;;;;5063353;28;20028;-58
2022/11/23 06:55:42;;;;;;;8.07;3.22;;;27.20;94.40;;;;;;5063861;28;20052;-58
2022/11/23 06:58:09;;;;;;;5.60;3.03;;;27.20;94.30;;;;;;5063534;28;20021;-57
2022/11/23 07:00:36;;;;;;;3.42;3.10;;;27.30;94.20;;;;;;5063689;28;20025;-53
2022/11/23 07:03:02;;;;;;;8.40;3.85;;;27.20;94.30;;;;;;5063665;28;20020;-59
2022/11/23 07:05:29;;;;;;;5.88;3.50;;;27.20;94.20;;;;;;5063819;28;20056;-57
2022/11/23 07:07:56;;;;;;;6.55;2.78;;;27.30;94.20;;;;;;5064397;28;20015;-54
2022/11/23 07:10:22;;;;;;;8.00;3.10;;;27.30;94.20;;;;;;5067624;28;20320;-53
2022/11/23 07:12:49;;;;;;;5.47;2.70;;;27.30;94.20;;;;;;5067216;28;20054;-54
2022/11/23 07:15:15;;;;;;;4.85;3.17;;;27.30;94.20;;;;;;5067293;28;20096;-55
2022/11/23 07:17:45;;;;;;;7.43;3.10;;;27.10;94.20;;;;;;5067459;28;20095;-57
2022/11/23 07:20:13;;;;;;;5.88;3.10;;;27.20;94.30;;;;;;5067323;28;20136;-56
2022/11/23 07:22:40;;;;;;;5.63;3.00;;;27.20;94.30;;;;;;5066974;28;20096;-58
2022/11/23 07:25:07;;;;;;;6.30;3.35;;;27.20;94.40;;;;;;5067020;28;20025;-56
2022/11/23 07:27:33;;;;;;;6.18;3.00;;;27.00;94.50;;;;;;5066951;28;20048;-57
2022/11/23 07:30:00;;;;;;;3.88;3.08;;;27.10;94.60;;;;;;5067139;28;20308;-53
2022/11/23 07:32:26;;;;;;;3.50;2.95;;;27.20;94.50;;;;;;5067060;28;20013;-57
2022/11/23 07:34:53;;;;;;;8.77;3.45;;;27.20;94.50;;;;;;5066887;28;20029;-57
2022/11/23 07:37:19;;;;;;;7.60;3.05;;;27.20;94.40;;;;;;5066589;28;20108;-55
2022/11/23 07:39:46;;;;;;;7.07;3.33;;;27.20;94.40;;;;;;5066876;28;20029;-56
2022/11/23 07:42:12;;;;;;;6.90;3.33;;;27.20;94.40;;;;;;5066823;28;20309;-58
2022/11/23 07:44:39;;;;;;;5.28;3.13;;;27.20;94.40;;;;;;5066607;28;20021;-52
2022/11/23 07:47:06;;;;;;;6.10;3.30;;;27.20;94.50;;;;;;5066631;28;20052;-53
2022/11/23 07:49:32;;;;;;;10.23;3.47;;;27.10;94.50;;;;;;5066579;28;20020;-54
2022/11/23 07:51:59;;;;;;;4.95;3.17;;;27.10;94.50;;;;;;5066544;28;20056;-60
2022/11/23 07:54:25;;;;;;;5.28;3.42;;;27.10;94.50;;;;;;5066682;28;20041;-57
2022/11/23 07:56:52;;;;;;;7.43;3.40;;;27.20;94.50;;;;;;5066508;28;20024;-53
2022/11/23 07:59:18;;;;;;;8.43;3.72;;;27.10;94.50;;;;;;5066414;28;20033;-60
2022/11/23 08:01:45;;;;;;;9.40;3.50;;;27.10;94.50;;;;;;5066771;28;20044;-59
2022/11/23 08:04:11;;;;;;;7.43;3.65;;;27.10;94.60;;;;;;5066322;28;20084;-59
2022/11/23 08:06:38;;;;;;;5.20;2.92;;;27.10;94.50;;;;;;5066548;28;20037;-59
2022/11/23 08:09:04;;;;;;;;;;;27.10;94.60;;;;;;5066363;28;20055;-57
2022/11/23 08:11:30;;;;;;;;;;;27.10;94.50;;;;;;5067140;28;19970;-58
2022/11/23 08:13:56;;;;;;;;;;;27.10;94.50;;;;;;5066630;28;19907;-59
2022/11/23 08:16:22;;;;;;;;;;;27.10;94.50;;;;;;5066820;28;19915;-54
2022/11/23 08:18:49;;;;;;;;;;;27.10;94.60;;;;;;5066227;28;19912;-57
2022/11/23 08:21:16;;;;;;;;;;;27.10;94.50;;;;;;5066362;28;19909;-51
2022/11/23 08:23:42;;;;;;;6.82;3.55;;;27.10;94.40;;;;;;5066005;28;19918;-52
2022/11/23 08:26:09;;;;;;;6.38;3.10;;;27.10;94.40;;;;;;5066161;28;20242;-58
2022/11/23 08:28:37;;;;;;;6.82;4.68;;;27.10;94.40;;;;;;5065873;28;20048;-57
2022/11/23 08:31:10;;;;;;;7.68;5.78;;;27.10;94.40;;;;;;5065927;28;20029;-54
2022/11/23 08:33:38;;;;;;;7.63;5.20;;;27.10;94.50;;;;;;5065727;28;20224;-53
2022/11/23 08:36:08;;;;;;;9.57;4.72;;;27.10;94.30;;;;;;5065431;28;20061;-59
2022/11/23 08:38:34;;;;;;;6.60;4.63;;;27.10;94.40;;;;;;5065403;28;20028;-52
2022/11/23 08:41:02;;;;;;;8.75;4.20;;;27.10;94.30;;;;;;5065410;28;20221;-52
2022/11/23 08:43:29;;;;;;;5.97;4.03;;;27.10;94.30;;;;;;5065557;28;20025;-54
2022/11/23 08:45:57;;;;;;;7.18;4.60;;;27.10;94.30;;;;;;5065550;28;20232;-55
2022/11/23 08:48:24;;;;;;;7.22;4.00;;;27.10;94.30;;;;;;5065350;28;20325;-52
2022/11/23 08:50:51;;;;;;;6.55;3.75;;;27.10;94.30;;;;;;5065602;28;20090;-53
2022/11/23 08:53:18;;;;;;;6.43;3.58;;;27.10;94.30;;;;;;5065231;28;20025;-53
2022/11/23 08:55:44;;;;;;;5.25;3.53;;;27.10;94.30;;;;;;5065478;28;20029;-58
2022/11/23 08:58:11;;;;;;;6.35;3.53;;;27.10;94.40;;;;;;5065197;28;20021;-56
2022/11/23 09:00:38;;;;;;;7.65;3.20;;;27.10;94.40;;;;;;5065163;28;20104;-53
2022/11/23 09:03:05;;;;;;;6.00;3.10;;;27.10;94.40;;;;;;5065151;28;20216;-57
2022/11/23 09:05:31;;;;;;;6.38;3.30;;;27.10;94.30;;;;;;5065324;28;20059;-54
2022/11/23 09:08:01;;;;;;;6.07;3.00;;;27.10;94.40;;;;;;5064831;28;20012;-53
2022/11/23 09:10:28;;;;;;;;;;;27.00;94.40;;;;;;5065556;28;19958;-58
2022/11/23 09:12:54;;;;;;;;;;;27.10;94.50;;;;;;5065359;28;20193;-53
2022/11/23 09:15:20;;;;;;;;;;;27.00;94.50;;;;;;5065292;28;19908;-53
2022/11/23 09:17:46;;;;;;;;;;;27.00;94.40;;;;;;5065289;28;19904;-59
2022/11/23 09:20:13;;;;;;;;;;;27.00;94.50;;;;;;5065447;28;20176;-58
2022/11/23 09:22:39;;;;;;;;;;;27.00;94.50;;;;;;5065293;28;20211;-54
2022/11/23 09:25:05;;;;;;;;;;;27.00;94.60;;;;;;5065280;28;19931;-56
2022/11/23 09:27:32;;;;;;;;;;;27.00;94.50;;;;;;5065045;28;19905;-54
2022/11/23 09:29:58;;;;;;;;;;;26.90;94.50;;;;;;5064644;28;19930;-54
2022/11/23 09:32:24;;;;;;;;;;;26.90;94.50;;;;;;5064670;28;19932;-54
2022/11/23 09:34:50;;;;;;;;;;;26.90;94.60;;;;;;5064847;28;19908;-54
2022/11/23 09:37:16;;;;;;;;;;;26.90;94.50;;;;;;5064685;28;20201;-53
2022/11/23 09:39:42;;;;;;;;;;;26.90;94.40;;;;;;5064859;28;19913;-52
2022/11/23 09:42:14;;;;;;;;;;;26.90;94.30;;;;;;5064876;28;19955;-54
2022/11/23 09:44:44;;;;;;;;;;;26.90;94.30;;;;;;5064471;28;19935;-55
2022/11/23 09:47:28;;;;;;;;;;;26.90;94.00;;;;;;5064598;28;19927;-53
2022/11/23 09:50:06;;;;;;;;;;;26.90;94.10;;;;;;5064530;28;19948;-53
2022/11/23 09:52:34;;;;;;;;;;;26.80;94.00;;;;;;5064559;28;19931;-56
2022/11/23 09:55:02;;;;;;;;;;;26.80;94.00;;;;;;5064718;28;19976;-53
2022/11/23 09:57:30;;;;;;;;;;;26.80;94.00;;;;;;5064488;28;19904;-53
2022/11/23 10:00:01;;;;;;;;;;;26.90;94.10;;;;;;5064608;28;19954;-53
2022/11/23 10:02:30;;;;;;;;;;;26.90;94.00;;;;;;5064427;28;20242;-61
2022/11/23 10:04:58;;;;;;;;;;;26.90;93.80;;;;;;5064490;28;19921;-53
2022/11/23 10:07:30;;;;;;;;;;;26.90;93.70;;;;;;5064374;28;19931;-55
2022/11/23 10:10:23;;;;;;;;;;;26.90;93.60;;;;;;5064091;28;19913;-53
2022/11/23 10:12:56;;;;;;;;;;;26.90;93.70;;;;;;5064152;28;19905;-54
2022/11/23 10:15:22;;;;;;;;;;;26.80;93.60;;;;;;5064291;28;19915;-54
2022/11/23 10:18:00;;;;;;;;;;;26.90;93.60;;;;;;5064140;28;19965;-55
2022/11/23 10:20:44;;;;;;;;;;;26.90;93.70;;;;;;5063905;28;19984;-54
2022/11/23 10:23:37;;;;;;;;;;;26.90;93.60;;;;;;5064366;28;19905;-53
2022/11/23 10:26:03;;;;;;;;;;;26.90;93.70;;;;;;5062029;28;19963;-59
2022/11/23 10:28:31;;;;;;;;;;;26.80;93.60;;;;;;5064071;28;19955;-53
2022/11/23 10:31:20;;;;;;;;;;;26.80;93.70;;;;;;5064292;28;19912;-57
2022/11/23 10:34:12;;;;;;;;;;;26.80;93.60;;;;;;5064547;28;19905;-54
2022/11/23 10:36:39;;;;;;;;;;;26.80;93.80;;;;;;5061591;28;20299;-54
2022/11/23 10:39:14;;;;;;;;;;;26.80;93.70;;;;;;5063619;28;19905;-57
2022/11/23 10:41:41;;;;;;;;;;;26.80;93.60;;;;;;5063044;28;19955;-55
2022/11/23 10:44:09;;;;;;;;;;;26.80;93.60;;;;;;5068192;28;20143;-54
2022/11/23 10:46:36;;;;;;;;;;;26.90;93.60;;;;;;5068487;28;19908;-56
2022/11/23 10:49:08;;;;;;;;;;;26.80;93.60;;;;;;5067066;28;19904;-54
2022/11/23 10:51:34;;;;;;;;;;;26.80;93.50;;;;;;5068464;28;19913;-61
2022/11/23 10:54:05;;;;;;;;;;;26.80;93.50;;;;;;5066341;28;19909;-54
2022/11/23 10:56:31;;;;;;;;;;;26.70;93.50;;;;;;5066833;28;19912;-55
2022/11/23 10:58:58;;;;;;;;;;;26.70;93.50;;;;;;5065224;28;20147;-54
2022/11/23 11:01:25;;;;;;;;;;;26.80;93.50;;;;;;5066532;28;19908;-58
2022/11/23 11:03:55;;;;;;;;;;;26.80;93.50;;;;;;5066284;28;19967;-54
2022/11/23 11:06:32;;;;;;;;;;;26.80;93.40;;;;;;5064863;28;19913;-55
2022/11/23 11:09:03;;;;;;;;;;;26.80;93.30;;;;;;5067288;28;20180;-56
2022/11/23 11:11:29;;;;;;;;;;;26.80;93.30;;;;;;5068194;28;19920;-55
2022/11/23 11:14:05;;;;;;;;;;;26.80;93.30;;;;;;5067685;28;19900;-55
2022/11/23 11:16:31;;;;;;;;;;;26.80;93.30;;;;;;5068085;28;19978;-53
2022/11/23 11:18:58;;;;;;;;;;;26.80;93.40;;;;;;5067869;28;20219;-57
2022/11/23 11:21:34;;;;;;;;;;;26.80;93.30;;;;;;5070132;28;19940;-57
2022/11/23 11:24:05;;;;;;;;;;;26.70;93.30;;;;;;5079050;28;19916;-54
2022/11/23 11:26:32;;;;;;;;;;;26.80;93.30;;;;;;5087290;28;19908;-55
2022/11/23 11:29:06;;;;;;;;;;;26.80;93.30;;;;;;5087042;28;20134;-59
2022/11/23 11:31:41;;;;;;;;;;;26.80;93.40;;;;;;5087651;28;19908;-53
2022/11/23 11:34:15;;;;;;;;;;;26.80;93.20;;;;;;5087226;28;20197;-52
2022/11/23 11:36:51;;;;;;;;;;;26.80;93.20;;;;;;5087316;28;19920;-52
2022/11/23 11:39:36;;;;;;;;;;;26.80;93.10;;;;;;5086056;28;20214;-57
2022/11/23 11:42:04;;;;;;;;;;;26.80;93.20;;;;;;5082292;28;19940;-59
2022/11/23 11:44:32;;;;;;;;;;;26.70;93.10;;;;;;5074520;28;19911;-59
2022/11/23 11:47:18;;;;;;;;;;;26.80;93.10;;;;;;5065216;28;20085;-56
2022/11/23 11:49:47;;;;;;;;;;;26.80;93.20;;;;;;5065039;28;20108;-53
2022/11/23 11:52:20;;;;;;;;;;;26.80;93.40;;;;;;5065476;28;19901;-58
2022/11/23 11:54:59;;;;;;;;;;;26.80;93.20;;;;;;5065710;28;19909;-54
2022/11/23 11:57:45;;;;;;;;;;;26.80;93.30;;;;;;5066458;28;19963;-52
2022/11/23 12:00:18;;;;;;;;;;;26.80;93.20;;;;;;5066598;28;19988;-54
2022/11/23 12:02:50;;;;;;;;;;;26.80;93.30;;;;;;5066659;28;19907;-55
2022/11/23 12:05:23;;;;;;;;;;;26.80;93.30;;;;;;5066927;28;19916;-55
2022/11/23 12:08:04;;;;;;;;;;;26.90;93.30;;;;;;5066397;28;20093;-51
2022/11/23 12:10:33;;;;;;;;;;;26.90;93.40;;;;;;5071364;28;20204;-54
2022/11/23 12:12:59;;;;;;;;;;;26.90;93.30;;;;;;5086517;28;19900;-55
2022/11/23 12:15:36;;;;;;;;;;;26.90;93.40;;;;;;5086693;28;19916;-55
2022/11/23 12:18:15;;;;;;;;;;;26.90;93.30;;;;;;5081524;28;19908;-54
2022/11/23 12:20:55;;;;;;;;;;;26.80;93.40;;;;;;5086999;28;19920;-51
2022/11/23 12:23:26;;;;;;;;;;;26.90;93.40;;;;;;5085295;28;20002;-53
2022/11/23 12:26:08;;;;;;;;;;;26.90;93.40;;;;;;5075676;28;20010;-50
2022/11/23 12:28:34;;;;;;;;;;;26.90;93.40;;;;;;5086020;28;19904;-52
2022/11/23 12:31:22;;;;;;;;;;;26.90;93.40;;;;;;5080286;28;20109;-52
2022/11/23 12:34:14;;;;;;;;;;;26.90;93.40;;;;;;5076653;28;19904;-50
2022/11/23 12:36:49;;;;;;;;;;;26.90;93.30;;;;;;5067771;28;19920;-53
2022/11/23 12:39:34;;;;;;;;;;;26.90;93.40;;;;;;5075250;28;19911;-56
2022/11/23 12:42:08;;;;;;;;;;;27.00;93.50;;;;;;5085734;28;19921;-57
2022/11/23 12:44:53;;;;;;;;;;;27.00;93.40;;;;;;5079621;28;19904;-58
2022/11/23 12:47:19;;;;;;;;;;;27.00;93.40;;;;;;5074863;28;19909;-55
2022/11/23 12:50:04;;;;;;;;;;;27.00;93.40;;;;;;5065944;28;19915;-55
2022/11/23 12:52:34;;;;;;;;;;;27.10;93.40;;;;;;5066064;28;20123;-54
2022/11/23 12:55:09;;;;;;;;;;;27.10;93.30;;;;;;5065868;28;19908;-57
2022/11/23 12:57:39;;;;;;;;;;;27.10;93.20;;;;;;5065879;28;19905;-57
2022/11/23 13:00:16;;;;;;;;;;;27.10;93.20;;;;;;5065710;28;19918;-56
2022/11/23 13:03:04;;;;;;;;;;;27.10;93.10;;;;;;5065637;28;19971;-55
2022/11/23 13:05:30;;;;;;;;;;;27.10;93.10;;;;;;5024301;28;20100;-59
2022/11/23 13:08:15;;;;;;;;;;;27.10;93.10;;;;;;5065552;28;19905;-55
2022/11/23 13:11:00;;;;;;;;;;;27.10;93.10;;;;;;5065910;28;20086;-56
2022/11/23 13:13:48;;;;;;;;;;;27.20;93.10;;;;;;5065562;28;19904;-55
2022/11/23 13:16:24;;;;;;;;;;;27.20;93.10;;;;;;5068010;28;20185;-54
2022/11/23 13:19:03;;;;;;;;;;;27.20;93.10;;;;;;5077948;28;19912;-55
2022/11/23 13:21:40;;;;;;;;;;;27.20;93.30;;;;;;5073583;28;19984;-56
2022/11/23 13:24:30;;;;;;;;;;;27.20;93.20;;;;;;5074027;28;19904;-54